Time;durP1;ratioP1;P1;durP2;ratioP2;P2;SDS_P1;SDS_P2;PMS_P1;PMS_P2;Temp;Humidity;BMP_temperature;BMP_pressure;BME280_temperature;BME280_humidity;BME280_pressure;Samples;Min_cycle;Max_cycle;Signal;HPM_P1;HPM_P2
2022/03/27 00:00:01;;;;;;;;;;;;;;;-143.90;100.00;55065.56;2080895;28;20410;-61
2022/03/27 00:01:21;;;;;;;;;;;;;;;-143.90;100.00;55045.69;2084473;28;20006;-63
2022/03/27 00:02:42;;;;;;;;;;;;;;;-143.90;100.00;55057.59;2085249;28;20055;-64
2022/03/27 00:04:03;;;;;;;;;;;;;;;-143.90;100.00;55079.44;2084407;28;19924;-64
2022/03/27 00:05:24;;;;;;;;;;;;;;;-143.90;100.00;55099.31;2084420;28;19968;-64
2022/03/27 00:06:45;;;;;;;;;;;;;;;-143.90;100.00;55063.56;2083365;28;19928;-63
2022/03/27 00:08:05;;;;;;;;;;;;;;;-143.90;100.00;55083.41;2084677;28;20459;-63
2022/03/27 00:09:29;;;;;;;;;;;;;;;-143.90;100.00;55091.38;2084370;28;19932;-64
2022/03/27 00:12:29;;;;;;;;;;;;;;;-143.90;100.00;55071.50;2085978;28;20625;-63
2022/03/27 00:14:07;;;;;;;;;;;;;;;-143.90;100.00;55107.25;2085906;28;20486;-63
2022/03/27 00:15:28;;;;;;;;;;;;;;;-143.90;100.00;55075.47;2085294;28;19920;-66
2022/03/27 00:16:49;;;;;;;;;;;;;;;-143.90;100.00;55083.41;2084108;28;19925;-63
2022/03/27 00:18:10;;;;;;;;;;;;;;;-143.90;100.00;55111.22;2085150;28;20031;-64
2022/03/27 00:19:30;;;;;;;;;;;;;;;-143.90;100.00;55051.66;2084150;28;19973;-63
2022/03/27 00:20:51;;;;;;;;;;;;;;;-143.90;100.00;55051.66;2083428;28;19927;-63
2022/03/27 00:22:12;;;;;;;;;;;;;;;-143.90;100.00;55073.50;2077224;28;19921;-63
2022/03/27 00:23:33;;;;;;;;;;;;;;;-143.90;100.00;55091.38;2079484;28;19913;-63
2022/03/27 00:24:54;;;;;;;;;;;;;;;-143.90;100.00;55065.56;2085493;28;19967;-64
2022/03/27 00:26:15;;;;;;;;;;;;;;;-143.90;100.00;55061.59;2077778;28;19931;-63
2022/03/27 00:27:36;;;;;;;;;;;;;;;-143.90;100.00;55063.56;2075652;28;20047;-63
2022/03/27 00:28:57;;;;;;;;;;;;;;;-143.90;100.00;55095.34;2076701;28;19920;-63
2022/03/27 00:30:17;;;;;;;;;;;;;;;-143.90;100.00;55023.84;2066876;28;19929;-63
2022/03/27 00:31:39;;;;;;;;;;;;;;;-143.90;100.00;55079.44;2074709;28;20361;-63
2022/03/27 00:33:00;;;;;;;;;;;;;;;-143.90;100.00;55075.47;2076328;28;19967;-63
2022/03/27 00:34:21;;;;;;;;;;;;;;;-143.90;100.00;55067.53;2076593;28;19921;-64
2022/03/27 00:35:42;;;;;;;;;;;;;;;-143.90;100.00;55063.56;2075437;28;19925;-64
2022/03/27 00:37:02;;;;;;;;;;;;;;;-143.90;100.00;55075.47;2075533;28;20036;-64
2022/03/27 00:38:23;;;;;;;;;;;;;;;-143.90;100.00;55095.34;2076776;28;19965;-64
2022/03/27 00:39:44;;;;;;;;;;;;;;;-143.90;100.00;55059.59;2076923;28;19925;-63
2022/03/27 00:41:05;;;;;;;;;;;;;;;-143.90;100.00;55075.47;2076375;28;19928;-64
2022/03/27 00:42:26;;;;;;;;;;;;;;;-143.90;100.00;55073.50;2074840;28;20035;-64
2022/03/27 00:43:47;;;;;;;;;;;;;;;-143.90;100.00;55043.72;2076236;28;19931;-64
2022/03/27 00:45:08;;;;;;;;;;;;;;;-143.90;100.00;55067.53;2075651;28;19921;-64
2022/03/27 00:46:28;;;;;;;;;;;;;;;-143.90;100.00;55089.38;2076943;28;20284;-64
2022/03/27 00:47:49;;;;;;;;;;;;;;;-143.90;100.00;55055.63;2075362;28;20385;-61
2022/03/27 00:49:11;;;;;;;;;;;;;;;-143.90;100.00;55065.56;2076132;28;19921;-64
2022/03/27 00:50:31;;;;;;;;;;;;;;;-143.90;100.00;55067.53;2076334;28;20443;-64
2022/03/27 00:51:52;;;;;;;;;;;;;;;-143.90;100.00;55065.56;2075834;28;19924;-64
2022/03/27 00:53:13;;;;;;;;;;;;;;;-143.90;100.00;55065.56;2077297;28;20372;-64
2022/03/27 00:54:34;;;;;;;;;;;;;;;-143.90;100.00;55067.53;2075655;28;20407;-64
2022/03/27 00:55:55;;;;;;;;;;;;;;;-143.90;100.00;55051.66;2076203;28;19928;-64
2022/03/27 00:57:16;;;;;;;;;;;;;;;-143.90;100.00;55119.16;2076182;28;19932;-64
2022/03/27 00:58:37;;;;;;;;;;;;;;;-143.90;100.00;55069.53;2076783;28;19928;-64
2022/03/27 00:59:58;;;;;;;;;;;;;;;-143.90;100.00;55067.53;2075727;28;19925;-64
2022/03/27 01:01:25;;;;;;;;;;;;;;;-143.90;100.00;55063.56;2075264;28;19948;-64
2022/03/27 01:02:45;;;;;;;;;;;;;;;-143.90;100.00;55077.47;2075913;28;20403;-64
2022/03/27 01:04:07;;;;;;;;;;;;;;;-143.90;100.00;55093.34;2068608;28;19932;-64
2022/03/27 01:05:28;;;;;;;;;;;;;;;-143.90;100.00;55123.13;2073217;28;20396;-64
2022/03/27 01:06:48;;;;;;;;;;;;;;;-143.90;100.00;55103.28;2076190;28;19927;-64
2022/03/27 01:08:10;;;;;;;;;;;;;;;-143.90;100.00;55071.50;2075385;28;19985;-64
2022/03/27 01:09:36;;;;;;;;;;;;;;;-143.90;100.00;55085.41;2076455;28;19983;-64
2022/03/27 01:10:57;;;;;;;;;;;;;;;-143.90;100.00;55083.41;2076186;28;19936;-64
2022/03/27 01:12:18;;;;;;;;;;;;;;;-143.90;100.00;55069.53;2077883;28;20637;-64
2022/03/27 01:13:41;;;;;;;;;;;;;;;-143.90;100.00;55035.78;2075596;28;19956;-64
2022/03/27 01:15:02;;;;;;;;;;;;;;;-143.90;100.00;55055.63;2077191;28;19924;-64
2022/03/27 01:16:42;;;;;;;;;;;;;;;-143.90;100.00;55083.41;2074494;28;20636;-64
2022/03/27 01:18:03;;;;;;;;;;;;;;;-143.90;100.00;55037.75;2075988;28;19927;-65
2022/03/27 01:19:24;;;;;;;;;;;;;;;-143.90;100.00;55089.38;2075869;28;19925;-65
2022/03/27 01:20:45;;;;;;;;;;;;;;;-143.90;100.00;55043.72;2066836;28;19921;-64
2022/03/27 01:22:05;;;;;;;;;;;;;;;-143.90;100.00;55095.34;2072554;28;20328;-64
2022/03/27 01:23:26;;;;;;;;;;;;;;;-143.90;100.00;55073.50;2076573;28;19961;-65
2022/03/27 01:24:47;;;;;;;;;;;;;;;-143.90;100.00;55057.59;2068552;28;19922;-64
2022/03/27 01:26:08;;;;;;;;;;;;;;;-143.90;100.00;55101.28;2072718;28;19976;-64
2022/03/27 01:27:30;;;;;;;;;;;;;;;-143.90;100.00;55059.59;2076432;28;20012;-64
2022/03/27 01:28:51;;;;;;;;;;;;;;;-143.90;100.00;55095.34;2074406;28;19944;-63
2022/03/27 01:30:12;;;;;;;;;;;;;;;-143.90;100.00;55055.63;2076404;28;19928;-64
2022/03/27 01:31:33;;;;;;;;;;;;;;;-143.90;100.00;55061.59;2072669;28;20016;-64
2022/03/27 01:32:54;;;;;;;;;;;;;;;-143.90;100.00;55079.44;2075241;28;19968;-64
2022/03/27 01:34:15;;;;;;;;;;;;;;;-143.90;100.00;55055.63;2076492;28;20727;-64
2022/03/27 01:35:36;;;;;;;;;;;;;;;-143.90;100.00;55067.53;2076841;28;19921;-64
2022/03/27 01:37:01;;;;;;;;;;;;;;;-143.90;100.00;55111.22;2076018;28;20372;-64
2022/03/27 01:38:22;;;;;;;;;;;;;;;-143.90;100.00;55051.66;2076290;28;19921;-65
2022/03/27 01:39:42;;;;;;;;;;;;;;;-143.90;100.00;55095.34;2079145;28;19925;-64
2022/03/27 01:41:04;;;;;;;;;;;;;;;-143.90;100.00;55079.44;2078558;28;19996;-64
2022/03/27 01:42:30;;;;;;;;;;;;;;;-143.90;100.00;55083.41;2077698;28;19921;-64
2022/03/27 01:43:51;;;;;;;;;;;;;;;-143.90;100.00;55063.56;2077823;28;20011;-63
2022/03/27 01:45:12;;;;;;;;;;;;;;;-143.90;100.00;55107.25;2076700;28;19968;-64
2022/03/27 01:46:37;;;;;;;;;;;;;;;-143.90;100.00;55091.38;2077779;28;19932;-64
2022/03/27 01:47:58;;;;;;;;;;;;;;;-143.90;100.00;55081.44;2078454;28;19967;-65
2022/03/27 01:49:22;;;;;;;;;;;;;;;-143.90;100.00;55073.50;2079982;28;19925;-64
2022/03/27 01:50:42;;;;;;;;;;;;;;;-143.90;100.00;55099.31;2079808;28;19925;-64
2022/03/27 01:52:03;;;;;;;;;;;;;;;-143.90;100.00;55077.47;2079191;28;19924;-64
2022/03/27 01:53:24;;;;;;;;;;;;;;;-143.90;100.00;55067.53;2068726;28;20151;-64
2022/03/27 01:54:45;;;;;;;;;;;;;;;-143.90;100.00;55083.41;2074768;28;20040;-64
2022/03/27 01:56:06;;;;;;;;;;;;;;;-143.90;100.00;55089.38;2078942;28;20004;-64
2022/03/27 01:57:26;;;;;;;;;;;;;;;-143.90;100.00;55055.63;2079282;28;19932;-64
2022/03/27 01:58:47;;;;;;;;;;;;;;;-143.90;100.00;55111.22;2078093;28;19925;-63
2022/03/27 02:00:09;;;;;;;;;;;;;;;-143.90;100.00;55059.59;2078851;28;19932;-64
2022/03/27 02:01:35;;;;;;;;;;;;;;;-143.90;100.00;55063.56;2077780;28;19920;-64
2022/03/27 02:02:56;;;;;;;;;;;;;;;-143.90;100.00;55039.75;2069949;28;19969;-64
2022/03/27 02:04:17;;;;;;;;;;;;;;;-143.90;100.00;55067.53;2076704;28;19979;-64
2022/03/27 02:05:37;;;;;;;;;;;;;;;-143.90;100.00;55069.53;2080072;28;19921;-63
2022/03/27 02:06:58;;;;;;;;;;;;;;;-143.90;100.00;55091.38;2078671;28;20011;-64
2022/03/27 02:08:19;;;;;;;;;;;;;;;-143.90;100.00;55115.19;2078338;28;19921;-64
2022/03/27 02:09:39;;;;;;;;;;;;;;;-143.90;100.00;55071.50;2079343;28;20444;-64
2022/03/27 02:11:01;;;;;;;;;;;;;;;-143.90;100.00;55113.22;2079057;28;20039;-64
2022/03/27 02:12:21;;;;;;;;;;;;;;;-143.90;100.00;55067.53;2078805;28;19928;-62
2022/03/27 02:13:42;;;;;;;;;;;;;;;-143.90;100.00;55061.59;2068204;28;19921;-64
2022/03/27 02:15:06;;;;;;;;;;;;;;;-143.90;100.00;55071.50;2075184;28;19928;-63
2022/03/27 02:16:27;;;;;;;;;;;;;;;-143.90;100.00;55071.50;2079547;28;19921;-64
2022/03/27 02:17:48;;;;;;;;;;;;;;;-143.90;100.00;55087.41;2078926;28;20668;-64
2022/03/27 02:19:09;;;;;;;;;;;;;;;-143.90;100.00;55097.31;2077023;28;19925;-64
2022/03/27 02:20:30;;;;;;;;;;;;;;;-143.90;100.00;55019.88;2078070;28;19920;-64
2022/03/27 02:21:51;;;;;;;;;;;;;;;-143.90;100.00;55083.41;2077403;28;19956;-64
2022/03/27 02:23:12;;;;;;;;;;;;;;;-143.90;100.00;55083.41;2078586;28;20011;-64
2022/03/27 02:24:32;;;;;;;;;;;;;;;-143.90;100.00;55087.41;2078751;28;20012;-63
2022/03/27 02:25:53;;;;;;;;;;;;;;;-143.90;100.00;55103.28;2084903;28;20437;-64
2022/03/27 02:27:14;;;;;;;;;;;;;;;-143.90;100.00;55063.56;2078081;28;20027;-64
2022/03/27 02:28:34;;;;;;;;;;;;;;;-143.90;100.00;55051.66;2083580;28;19982;-64
2022/03/27 02:29:55;;;;;;;;;;;;;;;-143.90;100.00;55107.25;2084956;28;19928;-64
2022/03/27 02:31:17;;;;;;;;;;;;;;;-143.90;100.00;55103.28;2086058;28;19921;-63
2022/03/27 02:32:37;;;;;;;;;;;;;;;-143.90;100.00;55079.44;2083485;28;19925;-64
2022/03/27 02:33:58;;;;;;;;;;;;;;;-143.90;100.00;55065.56;2083883;28;19946;-63
2022/03/27 02:35:18;;;;;;;;;;;;;;;-143.90;100.00;55107.25;2087176;28;19920;-63
2022/03/27 02:36:39;;;;;;;;;;;;;;;-143.90;100.00;55055.63;2085370;28;20012;-64
2022/03/27 02:38:00;;;;;;;;;;;;;;;-143.90;100.00;55083.41;2085821;28;19921;-64
2022/03/27 02:39:21;;;;;;;;;;;;;;;-143.90;100.00;55099.31;2086318;28;19925;-64
2022/03/27 02:40:42;;;;;;;;;;;;;;;-143.90;100.00;55087.41;2086824;28;19929;-64
2022/03/27 02:42:03;;;;;;;;;;;;;;;-143.90;100.00;55091.38;2087950;28;19920;-63
2022/03/27 02:43:24;;;;;;;;;;;;;;;-143.90;100.00;55115.19;2086504;28;20296;-63
2022/03/27 02:44:45;;;;;;;;;;;;;;;-143.90;100.00;55049.66;2085478;28;19927;-64
2022/03/27 02:46:06;;;;;;;;;;;;;;;-143.90;100.00;55089.38;2087583;28;19928;-64
2022/03/27 02:47:27;;;;;;;;;;;;;;;-143.90;100.00;55059.59;2087077;28;20456;-64
2022/03/27 02:48:47;;;;;;;;;;;;;;;-143.90;100.00;55075.47;2084355;28;20109;-64
2022/03/27 02:50:08;;;;;;;;;;;;;;;-143.90;100.00;55103.28;2084697;28;19921;-62
2022/03/27 02:51:28;;;;;;;;;;;;;;;-143.90;100.00;55099.31;2085233;28;19921;-64
2022/03/27 02:52:49;;;;;;;;;;;;;;;-143.90;100.00;55049.66;2085875;28;20015;-64
2022/03/27 02:54:10;;;;;;;;;;;;;;;-143.90;100.00;55059.59;2077489;28;19928;-64
2022/03/27 02:55:31;;;;;;;;;;;;;;;-143.90;100.00;55079.44;2069376;28;19956;-64
2022/03/27 02:56:51;;;;;;;;;;;;;;;-143.90;100.00;55135.03;2082895;28;19920;-64
2022/03/27 02:58:12;;;;;;;;;;;;;;;-143.90;100.00;55079.44;2084897;28;20011;-63
2022/03/27 02:59:33;;;;;;;;;;;;;;;-143.90;100.00;55121.16;2085108;28;19974;-64
2022/03/27 03:00:54;;;;;;;;;;;;;;;-143.90;100.00;55087.41;2086168;28;20037;-64
2022/03/27 03:02:14;;;;;;;;;;;;;;;-143.90;100.00;55083.41;2085773;28;20463;-64
2022/03/27 03:03:35;;;;;;;;;;;;;;;-143.90;100.00;55085.41;2084906;28;19987;-64
2022/03/27 03:04:56;;;;;;;;;;;;;;;-143.90;100.00;55085.41;2075334;28;19941;-63
2022/03/27 03:06:16;;;;;;;;;;;;;;;-143.90;100.00;55095.34;2081229;28;20377;-64
2022/03/27 03:07:43;;;;;;;;;;;;;;;-143.90;100.00;55079.44;2082770;28;19971;-64
2022/03/27 03:09:04;;;;;;;;;;;;;;;-143.90;100.00;55079.44;2085772;28;19920;-64
2022/03/27 03:10:25;;;;;;;;;;;;;;;-143.90;100.00;55075.47;2086175;28;19921;-64
2022/03/27 03:11:46;;;;;;;;;;;;;;;-143.90;100.00;55107.25;2083809;28;20725;-64
2022/03/27 03:13:07;;;;;;;;;;;;;;;-143.90;100.00;55063.56;2083396;28;19978;-64
2022/03/27 03:14:28;;;;;;;;;;;;;;;-143.90;100.00;55107.25;2084200;28;19998;-63
2022/03/27 03:15:49;;;;;;;;;;;;;;;-143.90;100.00;55115.19;2083891;28;19921;-64
2022/03/27 03:17:10;;;;;;;;;;;;;;;-143.90;100.00;55083.41;2085692;28;19975;-63
2022/03/27 03:18:31;;;;;;;;;;;;;;;-143.90;100.00;55075.47;2084002;28;19925;-64
2022/03/27 03:19:52;;;;;;;;;;;;;;;-143.90;100.00;55079.44;2067586;28;19979;-63
2022/03/27 03:21:13;;;;;;;;;;;;;;;-143.90;100.00;55059.59;2078689;28;19921;-63
2022/03/27 03:22:34;;;;;;;;;;;;;;;-143.90;100.00;55079.44;2080132;28;20003;-64
2022/03/27 03:23:55;;;;;;;;;;;;;;;-143.90;100.00;55071.50;2084478;28;19921;-64
2022/03/27 03:25:16;;;;;;;;;;;;;;;-143.90;100.00;55071.50;2085818;28;20260;-64
2022/03/27 03:26:36;;;;;;;;;;;;;;;-143.90;100.00;55059.59;2085404;28;20436;-64
2022/03/27 03:27:57;;;;;;;;;;;;;;;-143.90;100.00;55065.56;2084778;28;19921;-64
2022/03/27 03:29:18;;;;;;;;;;;;;;;-143.90;100.00;55079.44;2085436;28;19921;-64
2022/03/27 03:30:39;;;;;;;;;;;;;;;-143.90;100.00;55079.44;2084168;28;20659;-64
2022/03/27 03:32:00;;;;;;;;;;;;;;;-143.90;100.00;55107.25;2084814;28;19927;-64
2022/03/27 03:33:21;;;;;;;;;;;;;;;-143.90;100.00;55093.34;2085383;28;20062;-63
2022/03/27 03:34:41;;;;;;;;;;;;;;;-143.90;100.00;55095.34;2085157;28;19974;-64
2022/03/27 03:36:02;;;;;;;;;;;;;;;-143.90;100.00;55097.31;2085338;28;19921;-64
2022/03/27 03:37:23;;;;;;;;;;;;;;;-143.90;100.00;55103.28;2084297;28;19920;-64
2022/03/27 03:38:44;;;;;;;;;;;;;;;-143.90;100.00;55083.41;2084802;28;19921;-64
2022/03/27 03:40:07;;;;;;;;;;;;;;;-143.90;100.00;55063.56;2084147;28;20014;-64
2022/03/27 03:41:27;;;;;;;;;;;;;;;-143.90;100.00;55049.66;2084886;28;19924;-64
2022/03/27 03:42:48;;;;;;;;;;;;;;;-143.90;100.00;55067.53;2084600;28;20039;-64
2022/03/27 03:44:09;;;;;;;;;;;;;;;-143.90;100.00;55083.41;2084083;28;19927;-64
2022/03/27 03:45:29;;;;;;;;;;;;;;;-143.90;100.00;55071.50;2083928;28;20459;-64
2022/03/27 03:46:50;;;;;;;;;;;;;;;-143.90;100.00;55109.22;2083988;28;19921;-64
2022/03/27 03:48:11;;;;;;;;;;;;;;;-143.90;100.00;55055.63;2085155;28;20411;-64
2022/03/27 03:49:31;;;;;;;;;;;;;;;-143.90;100.00;55091.38;2085089;28;19963;-64
2022/03/27 03:50:53;;;;;;;;;;;;;;;-143.90;100.00;55123.13;2085423;28;20110;-63
2022/03/27 03:52:13;;;;;;;;;;;;;;;-143.90;100.00;55051.66;2085354;28;19924;-63
2022/03/27 03:53:34;;;;;;;;;;;;;;;-143.90;100.00;55091.38;2084050;28;20456;-64
2022/03/27 03:54:55;;;;;;;;;;;;;;;-143.90;100.00;55067.53;2084332;28;20453;-64
2022/03/27 03:56:15;;;;;;;;;;;;;;;-143.90;100.00;55079.44;2085028;28;19920;-64
2022/03/27 03:57:36;;;;;;;;;;;;;;;-143.90;100.00;55115.19;2085428;28;19931;-64
2022/03/27 03:58:57;;;;;;;;;;;;;;;-143.90;100.00;55079.44;2083835;28;20015;-64
2022/03/27 04:00:17;;;;;;;;;;;;;;;-143.90;100.00;55059.59;2085004;28;19931;-64
2022/03/27 04:01:38;;;;;;;;;;;;;;;-143.90;100.00;55075.47;2083955;28;19921;-64
2022/03/27 04:02:59;;;;;;;;;;;;;;;-143.90;100.00;55103.28;2084171;28;19931;-64
2022/03/27 04:04:19;;;;;;;;;;;;;;;-143.90;100.00;55079.44;2084548;28;19925;-63
2022/03/27 04:05:40;;;;;;;;;;;;;;;-143.90;100.00;55093.34;2085048;28;20039;-64
2022/03/27 04:07:01;;;;;;;;;;;;;;;-143.90;100.00;55055.63;2075492;28;20020;-64
2022/03/27 04:08:21;;;;;;;;;;;;;;;-143.90;100.00;55103.28;2080080;28;19968;-64
2022/03/27 04:09:42;;;;;;;;;;;;;;;-143.90;100.00;55069.53;2084495;28;19946;-64
2022/03/27 04:11:03;;;;;;;;;;;;;;;-143.90;100.00;55085.41;2085795;28;19959;-63
2022/03/27 04:12:24;;;;;;;;;;;;;;;-143.90;100.00;55127.09;2083427;28;20007;-64
2022/03/27 04:13:44;;;;;;;;;;;;;;;-143.90;100.00;55115.19;2085276;28;19920;-64
2022/03/27 04:15:05;;;;;;;;;;;;;;;-143.90;100.00;55055.63;2085303;28;20481;-64
2022/03/27 04:16:26;;;;;;;;;;;;;;;-143.90;100.00;55083.41;2077574;28;20631;-64
2022/03/27 04:17:48;;;;;;;;;;;;;;;-143.90;100.00;55063.56;2084082;28;20288;-64
2022/03/27 04:19:09;;;;;;;;;;;;;;;-143.90;100.00;55083.41;2084338;28;20498;-64
2022/03/27 04:20:29;;;;;;;;;;;;;;;-143.90;100.00;55047.69;2083216;28;20023;-63
2022/03/27 04:21:50;;;;;;;;;;;;;;;-143.90;100.00;55063.56;2085492;28;19929;-64
2022/03/27 04:23:11;;;;;;;;;;;;;;;-143.90;100.00;55067.53;2084497;28;19924;-64
2022/03/27 04:24:31;;;;;;;;;;;;;;;-143.90;100.00;55099.31;2084067;28;19932;-64
2022/03/27 04:25:52;;;;;;;;;;;;;;;-143.90;100.00;55091.38;2083866;28;20390;-63
2022/03/27 04:27:12;;;;;;;;;;;;;;;-143.90;100.00;55071.50;2084821;28;19925;-63
2022/03/27 04:28:33;;;;;;;;;;;;;;;-143.90;100.00;55031.78;2084580;28;20662;-64
2022/03/27 04:29:54;;;;;;;;;;;;;;;-143.90;100.00;55127.09;2084417;28;19956;-64
2022/03/27 04:31:14;;;;;;;;;;;;;;;-143.90;100.00;55121.16;2081625;28;19933;-63
2022/03/27 04:32:35;;;;;;;;;;;;;;;-143.90;100.00;55063.56;2084437;28;19920;-63
2022/03/27 04:33:56;;;;;;;;;;;;;;;-143.90;100.00;55115.19;2084275;28;20455;-66
2022/03/27 04:35:17;;;;;;;;;;;;;;;-143.90;100.00;55083.41;2085291;28;20385;-63
2022/03/27 04:36:37;;;;;;;;;;;;;;;-143.90;100.00;55097.31;2086115;28;19927;-63
2022/03/27 04:37:58;;;;;;;;;;;;;;;-143.90;100.00;55103.28;2083108;28;20486;-64
2022/03/27 04:39:19;;;;;;;;;;;;;;;-143.90;100.00;55079.44;2085623;28;19928;-63
2022/03/27 04:40:40;;;;;;;;;;;;;;;-143.90;100.00;55085.41;2082837;28;19998;-63
2022/03/27 04:42:00;;;;;;;;;;;;;;;-143.90;100.00;55079.44;2086816;27;20292;-63
2022/03/27 04:43:22;;;;;;;;;;;;;;;-143.90;100.00;55067.53;2084662;28;19931;-63
2022/03/27 04:44:43;;;;;;;;;;;;;;;-143.90;100.00;55103.28;2084204;28;19921;-63
2022/03/27 04:46:04;;;;;;;;;;;;;;;-143.90;100.00;55109.22;2083163;28;19996;-64
2022/03/27 04:47:25;;;;;;;;;;;;;;;-143.90;100.00;55103.28;2083567;28;19959;-64
2022/03/27 04:48:46;;;;;;;;;;;;;;;-143.90;100.00;55099.31;2083476;28;19925;-64
2022/03/27 04:50:08;;;;;;;;;;;;;;;-143.90;100.00;55063.56;2084748;28;19925;-64
2022/03/27 04:51:29;;;;;;;;;;;;;;;-143.90;100.00;55067.53;2083928;28;20265;-64
2022/03/27 04:52:49;;;;;;;;;;;;;;;-143.90;100.00;55099.31;2083406;28;19948;-64
2022/03/27 04:54:10;;;;;;;;;;;;;;;-143.90;100.00;55117.19;2084509;28;19951;-64
2022/03/27 04:55:30;;;;;;;;;;;;;;;-143.90;100.00;55093.34;2084534;28;19921;-64
2022/03/27 04:56:51;;;;;;;;;;;;;;;-143.90;100.00;55055.63;2083743;28;19920;-64
2022/03/27 04:58:12;;;;;;;;;;;;;;;-143.90;100.00;55079.44;2084895;28;19924;-64
2022/03/27 04:59:33;;;;;;;;;;;;;;;-143.90;100.00;55079.44;2084305;28;19932;-64
2022/03/27 05:00:53;;;;;;;;;;;;;;;-143.90;100.00;55061.59;2084125;28;19921;-63
2022/03/27 05:02:14;;;;;;;;;;;;;;;-143.90;100.00;55127.09;2084060;28;19963;-64
2022/03/27 05:03:35;;;;;;;;;;;;;;;-143.90;100.00;55067.53;2082960;28;19921;-63
2022/03/27 05:04:56;;;;;;;;;;;;;;;-143.90;100.00;55079.44;2083663;28;20352;-64
2022/03/27 05:06:16;;;;;;;;;;;;;;;-143.90;100.00;55081.44;2084316;28;20016;-63
2022/03/27 05:07:38;;;;;;;;;;;;;;;-143.90;100.00;55101.28;2083934;28;19921;-64
2022/03/27 05:08:59;;;;;;;;;;;;;;;-143.90;100.00;55119.16;2083247;28;19924;-64
2022/03/27 05:10:19;;;;;;;;;;;;;;;-143.90;100.00;55091.38;2083297;28;19925;-64
2022/03/27 05:11:40;;;;;;;;;;;;;;;-143.90;100.00;55099.31;2084079;28;20047;-64
2022/03/27 05:13:00;;;;;;;;;;;;;;;-143.90;100.00;55111.22;2086223;28;19921;-64
2022/03/27 05:14:22;;;;;;;;;;;;;;;-143.90;100.00;55083.41;2083800;28;19966;-64
2022/03/27 05:15:43;;;;;;;;;;;;;;;-143.90;100.00;55055.63;2082694;28;20024;-64
2022/03/27 05:17:04;;;;;;;;;;;;;;;-143.90;100.00;55107.25;2083778;28;19921;-64
2022/03/27 05:18:25;;;;;;;;;;;;;;;-143.90;100.00;55083.41;2083507;28;19943;-64
2022/03/27 05:19:45;;;;;;;;;;;;;;;-143.90;100.00;55095.34;2083741;28;19994;-64
2022/03/27 05:21:06;;;;;;;;;;;;;;;-143.90;100.00;55111.22;2085334;28;19925;-65
2022/03/27 05:22:27;;;;;;;;;;;;;;;-143.90;100.00;55111.22;2084319;28;19925;-64
2022/03/27 05:23:48;;;;;;;;;;;;;;;-143.90;100.00;55077.47;2083946;28;19986;-65
2022/03/27 05:25:09;;;;;;;;;;;;;;;-143.90;100.00;55097.31;2082862;28;19928;-65
2022/03/27 05:26:30;;;;;;;;;;;;;;;-143.90;100.00;55099.31;2074717;28;20100;-65
2022/03/27 05:27:53;;;;;;;;;;;;;;;-143.90;100.00;55099.31;2080055;28;19969;-64
2022/03/27 05:29:14;;;;;;;;;;;;;;;-143.90;100.00;55103.28;2083161;28;20430;-64
2022/03/27 05:30:35;;;;;;;;;;;;;;;-143.90;100.00;55103.28;2085119;28;19921;-64
2022/03/27 05:31:57;;;;;;;;;;;;;;;-143.90;100.00;55071.50;2083884;28;19931;-64
2022/03/27 05:33:18;;;;;;;;;;;;;;;-143.90;100.00;55099.31;2085436;28;20408;-64
2022/03/27 05:34:38;;;;;;;;;;;;;;;-143.90;100.00;55091.38;2082572;28;19925;-64
2022/03/27 05:35:59;;;;;;;;;;;;;;;-143.90;100.00;55097.31;2074800;28;19925;-64
2022/03/27 05:37:20;;;;;;;;;;;;;;;-143.90;100.00;55081.44;2081316;28;19925;-64
2022/03/27 05:38:41;;;;;;;;;;;;;;;-143.90;100.00;55063.56;2084598;28;19928;-64
2022/03/27 05:40:03;;;;;;;;;;;;;;;-143.90;100.00;55079.44;2083481;28;19924;-64
2022/03/27 05:41:24;;;;;;;;;;;;;;;-143.90;100.00;55123.13;2083008;28;19921;-64
2022/03/27 05:42:45;;;;;;;;;;;;;;;-143.90;100.00;55099.31;2083532;28;19942;-63
2022/03/27 05:44:06;;;;;;;;;;;;;;;-143.90;100.00;55127.09;2084294;28;19971;-65
2022/03/27 05:45:27;;;;;;;;;;;;;;;-143.90;100.00;55085.41;2083921;28;20015;-63
2022/03/27 05:46:48;;;;;;;;;;;;;;;-143.90;100.00;55095.34;2083778;28;19968;-64
2022/03/27 05:48:09;;;;;;;;;;;;;;;-143.90;100.00;55075.47;2084705;28;19928;-63
2022/03/27 05:49:29;;;;;;;;;;;;;;;-143.90;100.00;55091.38;2084032;28;19920;-63
2022/03/27 05:50:50;;;;;;;;;;;;;;;-143.90;100.00;55089.38;2083009;28;19959;-65
2022/03/27 05:52:16;;;;;;;;;;;;;;;-143.90;100.00;55103.28;2084437;28;19924;-59
2022/03/27 05:53:37;;;;;;;;;;;;;;;-143.90;100.00;55071.50;2083709;28;20015;-63
2022/03/27 05:54:57;;;;;;;;;;;;;;;-143.90;100.00;55063.56;2084002;28;19931;-64
2022/03/27 05:56:18;;;;;;;;;;;;;;;-143.90;100.00;55111.22;2084475;28;20071;-64
2022/03/27 05:57:39;;;;;;;;;;;;;;;-143.90;100.00;55099.31;2084365;28;19972;-64
2022/03/27 05:59:00;;;;;;;;;;;;;;;-143.90;100.00;55107.25;2083996;28;19928;-64
2022/03/27 06:00:21;;;;;;;;;;;;;;;-143.90;100.00;55103.28;2082883;28;20039;-64
2022/03/27 06:01:41;;;;;;;;;;;;;;;-143.90;100.00;55061.59;2082199;28;20448;-64
2022/03/27 06:03:02;;;;;;;;;;;;;;;-143.90;100.00;55091.38;2083451;28;19943;-64
2022/03/27 06:04:23;;;;;;;;;;;;;;;-143.90;100.00;55091.38;2084342;28;19927;-64
2022/03/27 06:05:43;;;;;;;;;;;;;;;-143.90;100.00;55119.16;2083402;28;19928;-64
2022/03/27 06:07:04;;;;;;;;;;;;;;;-143.90;100.00;55107.25;2083562;28;19928;-63
2022/03/27 06:08:25;;;;;;;;;;;;;;;-143.90;100.00;55075.47;2083906;28;19925;-64
2022/03/27 06:09:46;;;;;;;;;;;;;;;-143.90;100.00;55139.03;2083172;28;19921;-64
2022/03/27 06:11:06;;;;;;;;;;;;;;;-143.90;100.00;55158.88;2084410;28;20501;-64
2022/03/27 06:12:27;;;;;;;;;;;;;;;-143.90;100.00;55071.50;2085227;28;19964;-64
2022/03/27 06:13:48;;;;;;;;;;;;;;;-143.90;100.00;55091.38;2083460;28;19998;-64
2022/03/27 06:15:09;;;;;;;;;;;;;;;-143.90;100.00;55087.41;2084010;28;19932;-64
2022/03/27 06:16:29;;;;;;;;;;;;;;;-143.90;100.00;55101.28;2082110;28;20020;-64
2022/03/27 06:17:51;;;;;;;;;;;;;;;-143.90;100.00;55073.50;2073643;28;20555;-64
2022/03/27 06:19:11;;;;;;;;;;;;;;;-143.90;100.00;55115.19;2081160;28;19921;-64
2022/03/27 06:20:32;;;;;;;;;;;;;;;-143.90;100.00;55095.34;2084836;28;20421;-64
2022/03/27 06:21:53;;;;;;;;;;;;;;;-143.90;100.00;55083.41;2075249;28;20332;-63
2022/03/27 06:23:13;;;;;;;;;;;;;;;-143.90;100.00;55079.44;2080579;28;20007;-64
2022/03/27 06:24:34;;;;;;;;;;;;;;;-143.90;100.00;55111.22;2083979;28;20471;-64
2022/03/27 06:25:54;;;;;;;;;;;;;;;-143.90;100.00;55075.47;2083752;28;19931;-64
2022/03/27 06:27:15;;;;;;;;;;;;;;;-143.90;100.00;55079.44;2084960;28;20047;-64
2022/03/27 06:28:36;;;;;;;;;;;;;;;-143.90;100.00;55081.44;2085143;28;19921;-64
2022/03/27 06:29:56;;;;;;;;;;;;;;;-143.90;100.00;55075.47;2084328;28;19959;-64
2022/03/27 06:31:17;;;;;;;;;;;;;;;-143.90;100.00;55123.13;2083313;28;19936;-64
2022/03/27 06:32:37;;;;;;;;;;;;;;;-143.90;100.00;55095.34;2084261;28;19943;-64
2022/03/27 06:33:58;;;;;;;;;;;;;;;-143.90;100.00;55069.53;2084249;28;19966;-64
2022/03/27 06:35:19;;;;;;;;;;;;;;;-143.90;100.00;55127.09;2084356;28;19921;-64
2022/03/27 06:36:42;;;;;;;;;;;;;;;-143.90;100.00;55061.59;2085525;28;19921;-64
2022/03/27 06:38:02;;;;;;;;;;;;;;;-143.90;100.00;55067.53;2084765;28;19967;-64
2022/03/27 06:39:23;;;;;;;;;;;;;;;-143.90;100.00;55127.09;2084721;28;19924;-64
2022/03/27 06:40:44;;;;;;;;;;;;;;;-143.90;100.00;55071.50;2083809;28;20046;-64
2022/03/27 06:42:05;;;;;;;;;;;;;;;-143.90;100.00;55091.38;2085447;28;20399;-64
2022/03/27 06:43:25;;;;;;;;;;;;;;;-143.90;100.00;55119.16;2075960;28;19988;-64
2022/03/27 06:44:46;;;;;;;;;;;;;;;-143.90;100.00;55087.41;2083025;28;19921;-65
2022/03/27 06:46:07;;;;;;;;;;;;;;;-143.90;100.00;55095.34;2083908;28;19917;-64
2022/03/27 06:47:27;;;;;;;;;;;;;;;-143.90;100.00;55103.28;2085329;28;20517;-64